Terminal Aerodrome Forecast
Issued by NWS

Home | Current Version | Previous Version | Text Only | Print | Product List | Glossary On
Versions: 1 2 3 4 5 6 7 8 9 10 11 12 13
000
FTUS44 KLIX 280500
TAFGPT
TAF
KGPT 280520Z 2806/2906 VRB03KT P6SM SCT100 SCT250
     FM281400 08005KT P6SM SCT035
     FM281800 14007KT P6SM VCTS BKN040CB
     FM290000 15005KT P6SM FEW045 SCT100=

USA.gov is the U.S. government's official web portal to all federal, state and local government web resources and services.